createdAt,value
2019-01-23T00:01:37.496Z,-2.20
2019-01-23T00:04:06.484Z,-2.20
2019-01-23T00:06:35.682Z,-2.10
2019-01-23T00:09:09.124Z,-2.20
2019-01-23T00:11:38.023Z,-2.30
2019-01-23T00:14:14.742Z,-2.20
2019-01-23T00:16:43.348Z,-2.20
2019-01-23T00:19:12.330Z,-2.20
2019-01-23T00:21:41.746Z,-2.30
2019-01-23T00:24:10.900Z,-2.40
2019-01-23T00:26:48.969Z,-2.40
2019-01-23T00:29:20.874Z,-2.40
2019-01-23T00:31:52.591Z,-2.30
2019-01-23T00:34:21.485Z,-2.50
2019-01-23T00:36:50.591Z,-2.30
2019-01-23T00:39:19.557Z,-2.40
2019-01-23T00:41:54.790Z,-2.50
2019-01-23T00:44:32.861Z,-2.40
2019-01-23T00:47:01.812Z,-2.30
2019-01-23T00:49:36.557Z,-2.30
2019-01-23T00:52:08.533Z,-2.30
2019-01-23T00:54:43.681Z,-2.20
2019-01-23T00:57:12.809Z,-2.30
2019-01-23T00:59:41.786Z,-2.30
2019-01-23T01:02:13.792Z,-2.30
2019-01-23T01:04:47.075Z,-2.30
2019-01-23T01:07:18.790Z,-2.40
2019-01-23T01:09:47.672Z,-2.30
2019-01-23T01:12:19.567Z,-2.40
2019-01-23T01:14:48.566Z,-2.40
2019-01-23T01:17:20.487Z,-2.30
2019-01-23T01:19:54.274Z,-2.30
2019-01-23T01:22:20.311Z,-2.30
2019-01-23T01:24:55.608Z,-2.20
2019-01-23T01:27:24.456Z,-2.20
2019-01-23T01:29:53.367Z,-2.20
2019-01-23T01:32:25.084Z,-2.20
2019-01-23T01:34:53.887Z,-2.20
2019-01-23T01:37:27.069Z,-2.40
2019-01-23T01:39:55.864Z,-2.60
2019-01-23T01:42:30.997Z,-2.50
2019-01-23T01:44:59.894Z,-2.30
2019-01-23T01:47:30.453Z,-2.30
2019-01-23T01:50:09.523Z,-2.30
2019-01-23T01:52:29.968Z,-2.10
2019-01-23T01:55:01.621Z,-2.10
2019-01-23T01:57:32.268Z,-2.10
2019-01-23T02:00:05.245Z,-2.10
2019-01-23T02:02:35.390Z,-2.20
2019-01-23T02:05:04.759Z,-2.20
2019-01-23T02:07:36.509Z,-2.10
2019-01-23T02:10:07.020Z,-2.10
2019-01-23T02:12:38.990Z,-2.10
2019-01-23T02:15:12.901Z,-2.10
2019-01-23T02:17:41.879Z,-2.20
2019-01-23T02:21:04.685Z,-2.10
2019-01-23T02:23:33.508Z,-2.20
2019-01-23T02:26:02.466Z,-2.10
2019-01-23T02:28:31.426Z,-2.10
2019-01-23T02:31:00.257Z,-2.00
2019-01-23T02:33:32.168Z,-2.10
2019-01-23T02:36:04.306Z,-2.10
2019-01-23T02:38:39.430Z,-2.10
2019-01-23T02:41:14.152Z,-2.10
2019-01-23T02:43:47.274Z,-2.10
2019-01-23T02:46:16.098Z,-2.10
2019-01-23T02:48:44.901Z,-2.20
2019-01-23T02:51:14.916Z,-2.20
2019-01-23T02:53:43.724Z,-2.10
2019-01-23T02:56:12.837Z,-2.00
2019-01-23T02:58:41.739Z,-2.00
2019-01-23T03:01:10.570Z,-2.10
2019-01-23T03:03:42.316Z,-2.10
2019-01-23T03:06:11.299Z,-2.10
2019-01-23T03:08:43.107Z,-2.10
2019-01-23T03:11:15.118Z,-2.10
2019-01-23T03:13:46.837Z,-2.20
2019-01-23T03:16:15.654Z,-2.20
2019-01-23T03:18:44.617Z,-2.10
2019-01-23T03:21:16.548Z,-2.10
2019-01-23T03:23:45.609Z,-2.10
2019-01-23T03:26:17.300Z,-2.10
2019-01-23T03:28:46.125Z,-2.10
2019-01-23T03:31:18.102Z,-2.10
2019-01-23T03:33:50.087Z,-2.10
2019-01-23T03:36:18.905Z,-2.20
2019-01-23T03:38:53.779Z,-2.20
2019-01-23T03:41:23.945Z,-2.10
2019-01-23T03:43:53.095Z,-2.00
2019-01-23T03:46:24.812Z,-2.10
2019-01-23T03:48:53.820Z,-2.20
2019-01-23T03:51:22.648Z,-2.00
2019-01-23T03:53:51.892Z,-2.00
2019-01-23T03:56:20.817Z,-2.10
2019-01-23T03:58:49.780Z,-2.10
2019-01-23T04:01:18.808Z,-2.00
2019-01-23T04:03:53.552Z,-2.20
2019-01-23T04:06:28.399Z,-2.20
2019-01-23T04:09:00.146Z,-2.10
2019-01-23T04:11:28.966Z,-2.00
2019-01-23T04:14:06.781Z,-1.90
2019-01-23T04:16:37.085Z,-2.00
2019-01-23T04:19:06.006Z,-2.10
2019-01-23T04:21:34.829Z,-2.10
2019-01-23T04:24:06.735Z,-2.20
2019-01-23T04:26:39.759Z,-2.20
2019-01-23T04:29:13.238Z,-2.20
2019-01-23T04:31:39.511Z,-2.30
2019-01-23T04:34:11.465Z,-2.30
2019-01-23T04:36:40.417Z,-2.30
2019-01-23T04:39:12.062Z,-2.20
2019-01-23T04:41:41.105Z,-2.40
2019-01-23T04:44:13.505Z,-2.20
2019-01-23T04:46:42.334Z,-2.30
2019-01-23T04:49:11.151Z,-2.20
2019-01-23T04:51:55.988Z,-2.10
2019-01-23T04:54:25.078Z,-2.20
2019-01-23T04:56:54.116Z,-2.10
2019-01-23T04:59:26.401Z,-2.10
2019-01-23T05:01:55.539Z,-2.10
2019-01-23T05:04:24.427Z,-2.00
2019-01-23T05:06:53.305Z,-2.00
2019-01-23T05:09:24.942Z,-2.00
2019-01-23T05:11:56.816Z,-2.00
2019-01-23T05:14:25.706Z,-2.10
2019-01-23T05:16:54.510Z,-2.10
2019-01-23T05:19:23.642Z,-2.00
2019-01-23T05:21:52.846Z,-2.00
2019-01-23T05:24:21.700Z,-2.00
2019-01-23T05:26:50.595Z,-2.20
2019-01-23T05:29:19.479Z,-2.10
2019-01-23T05:31:48.463Z,-2.10
2019-01-23T05:34:17.270Z,-2.20
2019-01-23T05:36:46.141Z,-2.20
2019-01-23T05:39:15.008Z,-2.10
2019-01-23T05:41:43.812Z,-2.10
2019-01-23T05:44:12.647Z,-2.10
2019-01-23T05:46:41.531Z,-2.20
2019-01-23T05:49:13.101Z,-2.20
2019-01-23T05:51:48.116Z,-2.10
2019-01-23T05:54:17.251Z,-2.20
2019-01-23T05:56:46.313Z,-2.20
2019-01-23T05:59:15.249Z,-2.20
2019-01-23T06:01:44.218Z,-2.20
2019-01-23T06:04:16.049Z,-2.20
2019-01-23T06:06:51.181Z,-2.10
2019-01-23T06:09:20.029Z,-2.20
2019-01-23T06:11:49.096Z,-2.30
2019-01-23T06:14:20.976Z,-2.30
2019-01-23T06:16:52.980Z,-2.30
2019-01-23T06:19:22.361Z,-2.20
2019-01-23T06:21:51.498Z,-2.30
2019-01-23T06:24:32.179Z,-2.30
2019-01-23T06:27:06.801Z,-2.30
2019-01-23T06:29:35.642Z,-2.40
2019-01-23T06:32:04.870Z,-2.40
2019-01-23T06:34:33.914Z,-2.30
2019-01-23T06:37:05.593Z,-2.30
2019-01-23T06:39:37.329Z,-2.50
2019-01-23T06:42:06.285Z,-2.40
2019-01-23T06:44:35.137Z,-2.50
2019-01-23T06:47:04.029Z,-2.40
2019-01-23T06:49:32.845Z,-2.50
2019-01-23T06:52:04.660Z,-2.40
2019-01-23T06:54:33.621Z,-2.30
2019-01-23T06:57:02.595Z,-2.50
2019-01-23T06:59:31.413Z,-2.40
2019-01-23T07:02:06.626Z,-2.40
2019-01-23T07:04:35.451Z,-2.30
2019-01-23T07:07:04.386Z,-2.40
2019-01-23T07:09:33.585Z,-2.30
2019-01-23T07:12:05.305Z,-2.30
2019-01-23T07:14:37.302Z,-2.20
2019-01-23T07:17:06.237Z,-2.30
2019-01-23T07:19:40.994Z,-2.40
2019-01-23T07:22:09.832Z,-2.40
2019-01-23T07:24:38.943Z,-2.30
2019-01-23T07:27:07.870Z,-2.30
2019-01-23T07:29:36.837Z,-2.30
2019-01-23T07:32:08.651Z,-2.20
2019-01-23T07:34:38.546Z,-2.20
2019-01-23T07:37:07.522Z,-2.10
2019-01-23T07:39:45.665Z,-2.20
2019-01-23T07:42:14.681Z,-2.20
2019-01-23T07:44:47.982Z,-2.10
2019-01-23T07:47:14.294Z,-2.10
2019-01-23T07:49:43.405Z,-2.10
2019-01-23T07:52:12.424Z,-2.10
2019-01-23T07:54:41.373Z,-2.20
2019-01-23T07:57:11.034Z,-2.20
2019-01-23T07:59:44.133Z,-2.20
2019-01-23T08:02:13.154Z,-2.10
2019-01-23T08:04:42.345Z,-2.10
2019-01-23T08:07:14.240Z,-2.10
2019-01-23T08:09:43.395Z,-2.20
2019-01-23T08:12:13.364Z,-2.30
2019-01-23T08:14:43.093Z,-2.20
2019-01-23T08:17:12.528Z,-2.30
2019-01-23T08:19:43.265Z,-2.10
2019-01-23T08:22:12.501Z,-2.10
2019-01-23T08:24:42.337Z,-2.20
2019-01-23T08:27:15.033Z,-2.20
2019-01-23T08:29:44.177Z,-2.20
2019-01-23T08:32:13.026Z,-2.40
2019-01-23T08:34:45.281Z,-2.30
2019-01-23T08:37:16.089Z,-2.20
2019-01-23T08:39:45.061Z,-2.30
2019-01-23T08:42:17.045Z,-2.20
2019-01-23T08:44:45.873Z,-2.10
2019-01-23T08:47:14.912Z,-2.20
2019-01-23T08:49:45.927Z,-2.10
2019-01-23T08:52:19.417Z,-2.10
2019-01-23T08:54:48.516Z,-2.20
2019-01-23T08:57:20.599Z,-2.20
2019-01-23T08:59:49.534Z,-2.20
2019-01-23T09:02:21.588Z,-2.30
2019-01-23T09:04:50.870Z,-2.00
2019-01-23T09:07:25.912Z,-1.90
2019-01-23T09:09:57.909Z,-1.80
2019-01-23T09:12:26.863Z,-1.70
2019-01-23T09:14:58.930Z,-1.70
2019-01-23T09:17:32.445Z,-1.70
2019-01-23T09:19:59.628Z,-1.60
2019-01-23T09:22:28.602Z,-1.50
2019-01-23T09:24:57.486Z,-1.40
2019-01-23T09:27:26.333Z,-1.60
2019-01-23T09:29:55.793Z,-1.80
2019-01-23T09:33:08.809Z,-1.70
2019-01-23T09:36:00.565Z,-1.80
2019-01-23T09:39:34.544Z,-1.80
2019-01-23T09:42:53.303Z,-1.70
2019-01-23T09:46:01.871Z,-1.70
2019-01-23T09:48:55.698Z,-1.60
2019-01-23T09:52:14.536Z,-1.70
2019-01-23T09:54:43.488Z,-1.50
2019-01-23T09:57:12.377Z,-1.60
2019-01-23T09:59:47.366Z,-1.70
2019-01-23T10:02:16.620Z,-1.70
2019-01-23T10:04:45.517Z,-1.50
2019-01-23T10:07:14.612Z,-1.50
2019-01-23T10:09:46.533Z,-1.40
2019-01-23T10:12:15.704Z,-1.40
2019-01-23T10:14:44.918Z,-1.50
2019-01-23T10:17:16.913Z,-1.40
2019-01-23T10:19:48.643Z,-1.50
2019-01-23T10:22:17.837Z,-1.40
2019-01-23T10:24:49.682Z,-1.50
2019-01-23T10:27:18.736Z,-1.50
2019-01-23T10:29:47.553Z,-1.30
2019-01-23T10:32:16.444Z,-1.30
2019-01-23T10:34:45.346Z,-1.20
2019-01-23T10:37:19.481Z,-1.20
2019-01-23T10:39:44.983Z,-1.20
2019-01-23T10:42:15.214Z,-1.20
2019-01-23T10:44:44.121Z,-1.00
2019-01-23T10:47:19.207Z,-1.00
2019-01-23T10:49:51.086Z,-1.00
2019-01-23T10:52:22.750Z,-1.10
2019-01-23T10:54:51.690Z,-1.10
2019-01-23T10:57:20.642Z,-1.10
2019-01-23T10:59:49.562Z,-1.00
2019-01-23T11:02:18.530Z,-1.10
2019-01-23T11:04:47.507Z,-0.90
2019-01-23T11:07:19.465Z,-0.80
2019-01-23T11:09:48.362Z,-0.80
2019-01-23T11:12:20.001Z,-0.80
2019-01-23T11:14:48.805Z,-0.90
2019-01-23T11:17:17.707Z,-0.80
2019-01-23T11:19:46.510Z,-0.80
2019-01-23T11:22:18.121Z,-0.90
2019-01-23T11:24:56.324Z,-0.80
2019-01-23T11:27:25.292Z,-0.90
2019-01-23T11:29:57.325Z,-0.90
2019-01-23T11:32:26.205Z,-1.00
2019-01-23T11:34:55.076Z,-1.00
2019-01-23T11:37:24.050Z,-1.00
2019-01-23T11:39:52.941Z,-0.80
2019-01-23T11:42:21.934Z,-0.80
2019-01-23T11:44:50.938Z,-1.00
2019-01-23T11:47:20.130Z,-1.00
2019-01-23T11:49:48.945Z,-1.00
2019-01-23T11:52:17.854Z,-1.20
2019-01-23T11:54:46.681Z,-1.10
2019-01-23T11:57:18.605Z,-1.10
2019-01-23T11:59:47.628Z,-1.20
2019-01-23T12:02:19.715Z,-1.00
2019-01-23T12:04:51.436Z,-0.70
2019-01-23T12:07:20.490Z,-0.70
2019-01-23T12:09:58.784Z,-0.90
2019-01-23T12:12:30.802Z,-0.90
2019-01-23T12:14:59.873Z,-0.80
2019-01-23T12:17:28.846Z,-0.90
2019-01-23T12:20:03.619Z,-1.20
2019-01-23T12:22:35.474Z,-1.10
2019-01-23T12:25:07.714Z,-1.20
2019-01-23T12:27:36.826Z,-1.20
2019-01-23T12:30:09.829Z,-1.30
2019-01-23T12:32:41.741Z,-1.30
2019-01-23T12:35:13.775Z,-1.20
2019-01-23T12:37:42.813Z,-1.30
2019-01-23T12:40:12.792Z,-1.10
2019-01-23T12:42:42.017Z,-1.00
2019-01-23T12:45:17.127Z,-1.00
2019-01-23T12:47:46.149Z,-1.00
2019-01-23T12:50:16.796Z,-1.10
2019-01-23T12:52:46.006Z,-1.10
2019-01-23T12:55:14.978Z,-1.20
2019-01-23T12:57:44.178Z,-1.20
2019-01-23T13:00:17.866Z,-1.20
2019-01-23T13:02:46.853Z,-1.40
2019-01-23T13:05:17.677Z,-1.40
2019-01-23T13:07:46.658Z,-1.60
2019-01-23T13:10:21.820Z,-1.70
2019-01-23T13:12:51.333Z,-1.60
2019-01-23T13:15:21.995Z,-1.40
2019-01-23T13:17:50.953Z,-1.50
2019-01-23T13:20:20.590Z,-1.50
2019-01-23T13:22:49.786Z,-1.40
2019-01-23T13:25:20.875Z,-1.40
2019-01-23T13:27:49.860Z,-1.50
2019-01-23T13:30:20.610Z,-1.30
2019-01-23T13:32:49.682Z,-1.50
2019-01-23T13:35:20.894Z,-1.50
2019-01-23T13:37:52.812Z,-1.40
2019-01-23T13:40:29.599Z,-1.60
2019-01-23T13:42:58.549Z,-1.80
2019-01-23T13:45:27.515Z,-1.70
2019-01-23T13:47:56.492Z,-1.30
2019-01-23T13:50:27.017Z,-1.30
2019-01-23T13:52:56.217Z,-1.50
2019-01-23T13:55:25.550Z,-1.60
2019-01-23T13:57:54.472Z,-1.60
2019-01-23T14:00:29.320Z,-1.40
2019-01-23T14:02:58.392Z,-1.30
2019-01-23T14:05:28.384Z,-1.40
2019-01-23T14:07:57.249Z,-1.40
2019-01-23T14:10:26.313Z,-1.60
2019-01-23T14:13:05.734Z,-1.60
2019-01-23T14:15:36.013Z,-1.50
2019-01-23T14:18:05.761Z,-1.50
2019-01-23T14:20:34.838Z,-1.60
2019-01-23T14:23:04.047Z,-1.40
2019-01-23T14:25:33.011Z,-1.40
2019-01-23T14:28:05.157Z,-1.30
2019-01-23T14:30:39.322Z,-1.40
2019-01-23T14:33:14.440Z,-1.60
2019-01-23T14:35:44.849Z,-1.50
2019-01-23T14:38:13.820Z,-1.60
2019-01-23T14:40:46.896Z,-1.50
2019-01-23T14:43:19.685Z,-1.50
2019-01-23T14:45:48.694Z,-1.40
2019-01-23T14:48:18.029Z,-1.40
2019-01-23T14:50:52.810Z,-1.50
2019-01-23T14:53:21.822Z,-1.60
2019-01-23T14:55:51.232Z,-1.60
2019-01-23T14:58:32.150Z,-1.60
2019-01-23T15:01:01.089Z,-1.60
2019-01-23T15:03:30.042Z,-1.50
2019-01-23T15:05:58.881Z,-1.50
2019-01-23T15:08:27.756Z,-1.30
2019-01-23T15:10:56.642Z,-1.40
2019-01-23T15:13:28.969Z,-1.50
2019-01-23T15:16:04.046Z,-1.50
2019-01-23T15:18:33.195Z,-1.60
2019-01-23T15:21:04.889Z,-1.80
2019-01-23T15:23:33.705Z,-1.80
2019-01-23T15:26:02.603Z,-1.80
2019-01-23T15:28:31.562Z,-1.80
2019-01-23T15:31:03.265Z,-1.70
2019-01-23T15:33:35.221Z,-1.50
2019-01-23T15:36:04.288Z,-1.70
2019-01-23T15:38:33.111Z,-1.70
2019-01-23T15:41:05.038Z,-1.60
2019-01-23T15:43:33.937Z,-1.80
2019-01-23T15:46:07.514Z,-1.80
2019-01-23T15:48:39.314Z,-1.80
2019-01-23T15:51:08.293Z,-1.90
2019-01-23T15:53:37.415Z,-1.80
2019-01-23T15:56:09.759Z,-1.70
2019-01-23T15:58:38.643Z,-1.90
2019-01-23T16:01:07.905Z,-1.80
2019-01-23T16:03:36.950Z,-1.80
2019-01-23T16:06:05.905Z,-1.80
2019-01-23T16:08:34.875Z,-1.80
2019-01-23T16:11:04.634Z,-1.70
2019-01-23T16:13:33.686Z,-1.70
2019-01-23T16:16:06.949Z,-1.70
2019-01-23T16:18:38.552Z,-1.70
2019-01-23T16:21:07.484Z,-1.80
2019-01-23T16:23:36.613Z,-1.90
2019-01-23T16:26:05.661Z,-2.10
2019-01-23T16:28:34.569Z,-2.00
2019-01-23T16:31:06.345Z,-2.00
2019-01-23T16:33:38.394Z,-1.90
2019-01-23T16:36:07.389Z,-1.70
2019-01-23T16:38:36.296Z,-1.90
2019-01-23T16:41:05.265Z,-1.80
2019-01-23T16:43:35.449Z,-1.80
2019-01-23T16:46:04.537Z,-1.70
2019-01-23T16:48:36.644Z,-1.70
2019-01-23T16:51:08.504Z,-2.00
2019-01-23T16:53:40.893Z,-1.80
2019-01-23T16:56:10.011Z,-1.70
2019-01-23T16:58:45.473Z,-1.70
2019-01-23T17:01:14.478Z,-1.70
2019-01-23T17:03:43.561Z,-1.90
2019-01-23T17:06:14.384Z,-1.90
2019-01-23T17:08:49.253Z,-1.80
2019-01-23T17:11:21.250Z,-2.00
2019-01-23T17:13:50.150Z,-2.10
2019-01-23T17:16:19.110Z,-1.90
2019-01-23T17:18:49.388Z,-1.90
2019-01-23T17:21:21.243Z,-1.80
2019-01-23T17:23:50.077Z,-1.70
2019-01-23T17:26:19.059Z,-1.80
2019-01-23T17:28:50.710Z,-1.70
2019-01-23T17:31:22.998Z,-1.70
2019-01-23T17:33:51.898Z,-1.60
2019-01-23T17:36:26.927Z,-1.70
2019-01-23T17:39:01.739Z,-1.70
2019-01-23T17:41:34.010Z,-1.70
2019-01-23T17:44:03.170Z,-1.70
2019-01-23T17:46:32.065Z,-1.80
2019-01-23T17:49:01.037Z,-1.80
2019-01-23T17:51:32.981Z,-1.80
2019-01-23T17:54:01.978Z,-1.90
2019-01-23T17:56:31.001Z,-1.90
2019-01-23T17:59:04.889Z,-1.70
2019-01-23T18:01:31.029Z,-1.70
2019-01-23T18:04:01.249Z,-1.80
2019-01-23T18:06:30.585Z,-1.80
2019-01-23T18:09:02.436Z,-1.80
2019-01-23T18:11:34.197Z,-1.70
2019-01-23T18:14:09.472Z,-1.70
2019-01-23T18:16:39.892Z,-1.80
2019-01-23T18:19:09.128Z,-1.70
2019-01-23T18:21:38.149Z,-1.60
2019-01-23T18:24:10.156Z,-1.60
2019-01-23T18:26:42.076Z,-1.70
2019-01-23T18:29:13.760Z,-1.60
2019-01-23T18:31:51.831Z,-1.70
2019-01-23T18:34:53.977Z,-1.70
2019-01-23T18:37:39.151Z,-1.60
2019-01-23T18:40:48.146Z,-1.60
2019-01-23T18:43:43.278Z,-1.80
2019-01-23T18:47:11.521Z,-1.60
2019-01-23T18:50:11.359Z,-1.70
2019-01-23T18:52:40.577Z,-1.80
2019-01-23T18:55:11.453Z,-1.70
2019-01-23T18:57:40.702Z,-1.70
2019-01-23T19:00:14.195Z,-1.80
2019-01-23T19:02:45.856Z,-1.80
2019-01-23T19:05:18.070Z,-1.80
2019-01-23T19:07:47.053Z,-1.80
2019-01-23T19:10:22.288Z,-1.80
2019-01-23T19:12:51.300Z,-1.90
2019-01-23T19:15:20.666Z,-1.80
2019-01-23T19:17:52.659Z,-1.80
2019-01-23T19:20:23.066Z,-1.70
2019-01-23T19:22:51.946Z,-1.80
2019-01-23T19:25:25.842Z,-1.90
2019-01-23T19:27:54.535Z,-1.70
2019-01-23T19:30:23.638Z,-1.80
2019-01-23T19:32:52.601Z,-1.70
2019-01-23T19:35:21.603Z,-1.60
2019-01-23T19:37:53.670Z,-1.60
2019-01-23T19:40:23.157Z,-1.70
2019-01-23T19:42:54.891Z,-1.80
2019-01-23T19:45:26.702Z,-1.80
2019-01-23T19:47:58.638Z,-1.80
2019-01-23T19:50:32.105Z,-1.70
2019-01-23T19:53:02.735Z,-1.70
2019-01-23T19:55:32.681Z,-1.70
2019-01-23T19:58:04.506Z,-1.80
2019-01-23T20:00:37.689Z,-1.70
2019-01-23T20:03:07.373Z,-1.70
2019-01-23T20:05:37.267Z,-1.80
2019-01-23T20:08:07.935Z,-1.70
2019-01-23T20:10:40.533Z,-1.70
2019-01-23T20:13:10.529Z,-1.70
2019-01-23T20:15:41.569Z,-1.70
2019-01-23T20:18:12.128Z,-1.60
2019-01-23T20:20:45.802Z,-1.70
2019-01-23T20:23:16.253Z,-1.60
2019-01-23T20:25:48.744Z,-1.60
2019-01-23T20:28:22.164Z,-1.70
2019-01-23T20:30:51.796Z,-1.70
2019-01-23T20:33:27.959Z,-1.70
2019-01-23T20:35:56.659Z,-1.70
2019-01-23T20:38:27.356Z,-1.70
2019-01-23T20:40:57.317Z,-1.70
2019-01-23T20:43:26.673Z,-1.60
2019-01-23T20:46:00.017Z,-1.70
2019-01-23T20:48:29.113Z,-1.60
2019-01-23T20:50:58.028Z,-1.80
2019-01-23T20:53:27.013Z,-1.80
2019-01-23T20:55:59.198Z,-1.70
2019-01-23T20:58:31.459Z,-1.60
2019-01-23T21:01:03.439Z,-1.60
2019-01-23T21:03:35.092Z,-1.60
2019-01-23T21:06:03.143Z,-1.60
2019-01-23T21:08:35.122Z,-1.60
2019-01-23T21:11:06.892Z,-1.40
2019-01-23T21:13:35.713Z,-1.50
2019-01-23T21:16:04.715Z,-1.50
2019-01-23T21:18:33.631Z,-1.60
2019-01-23T21:21:05.868Z,-1.60
2019-01-23T21:23:37.878Z,-1.60
2019-01-23T21:26:06.853Z,-1.60
2019-01-23T21:28:38.749Z,-1.70
2019-01-23T21:31:07.637Z,-1.80
2019-01-23T21:33:42.122Z,-1.70
2019-01-23T21:36:10.345Z,-1.70
2019-01-23T21:38:40.512Z,-1.70
2019-01-23T21:41:09.399Z,-1.60
2019-01-23T21:43:38.536Z,-1.70
2019-01-23T21:46:07.420Z,-1.70
2019-01-23T21:48:36.290Z,-1.70
2019-01-23T21:51:05.264Z,-1.70
2019-01-23T21:53:36.900Z,-1.70
2019-01-23T21:56:06.191Z,-1.80
2019-01-23T21:58:42.662Z,-1.70
2019-01-23T22:01:12.086Z,-1.70
2019-01-23T22:03:40.926Z,-1.70
2019-01-23T22:06:15.717Z,-1.70
2019-01-23T22:08:44.622Z,-1.90
2019-01-23T22:11:16.548Z,-1.70
2019-01-23T22:13:45.729Z,-1.70
2019-01-23T22:16:14.693Z,-1.70
2019-01-23T22:18:47.238Z,-1.60
2019-01-23T22:21:16.223Z,-1.60
2019-01-23T22:23:45.191Z,-1.70
2019-01-23T22:26:17.161Z,-1.70
2019-01-23T22:28:46.089Z,-1.60
2019-01-23T22:31:21.188Z,-1.60
2019-01-23T22:33:56.096Z,-1.80
2019-01-23T22:36:21.076Z,-1.80
2019-01-23T22:38:53.079Z,-1.60
2019-01-23T22:41:22.141Z,-1.60
2019-01-23T22:43:53.981Z,-1.70
2019-01-23T22:46:22.893Z,-1.70
2019-01-23T22:48:52.002Z,-1.80
2019-01-23T22:51:25.079Z,-1.90
2019-01-23T22:53:59.414Z,-1.90
2019-01-23T22:56:34.256Z,-2.00
2019-01-23T22:59:05.826Z,-2.00
2019-01-23T23:01:36.142Z,-2.00
2019-01-23T23:04:08.103Z,-1.90
2019-01-23T23:06:39.761Z,-1.90
2019-01-23T23:09:09.773Z,-1.90
2019-01-23T23:11:38.718Z,-1.90
2019-01-23T23:14:07.902Z,-1.80
2019-01-23T23:16:37.115Z,-1.80
2019-01-23T23:19:06.334Z,-1.80
2019-01-23T23:21:35.516Z,-1.90
2019-01-23T23:24:04.685Z,-2.00
2019-01-23T23:26:33.573Z,-1.80
2019-01-23T23:29:02.466Z,-1.80
2019-01-23T23:31:35.418Z,-1.80
2019-01-23T23:34:09.930Z,-1.70
2019-01-23T23:36:41.185Z,-1.70
2019-01-23T23:39:11.242Z,-1.70
2019-01-23T23:41:48.762Z,-1.90
2019-01-23T23:44:22.074Z,-1.90
2019-01-23T23:46:50.966Z,-1.90
2019-01-23T23:49:19.790Z,-1.80
2019-01-23T23:51:51.637Z,-1.90
2019-01-23T23:54:20.525Z,-1.90
2019-01-23T23:56:49.486Z,-1.90
2019-01-23T23:59:18.685Z,-2.00
